Time;durP1;ratioP1;P1;durP2;ratioP2;P2;SDS_P1;SDS_P2;PMS_P1;PMS_P2;Temp;Humidity;BMP_temperature;BMP_pressure;BME280_temperature;BME280_humidity;BME280_pressure;Samples;Min_cycle;Max_cycle;Signal;HPM_P1;HPM_P2
2022/10/02 00:00:15;;;;;;;6.78;4.37;;;;;;;15.43;92.81;99443.89;1708917;83;21155;-64
2022/10/02 00:03:09;;;;;;;6.62;4.10;;;;;;;15.40;93.01;99426.45;1723329;83;21601;-64
2022/10/02 00:05:54;;;;;;;6.78;4.40;;;;;;;15.39;93.17;99405.45;1727461;83;21123;-65
2022/10/02 00:08:31;;;;;;;8.13;4.37;;;;;;;15.43;93.37;99397.50;1730713;82;21174;-65
2022/10/02 00:11:14;;;;;;;5.92;4.25;;;;;;;15.44;93.27;99393.11;1730740;82;21389;-64
2022/10/02 00:13:51;;;;;;;7.00;4.35;;;;;;;15.41;93.18;99382.58;1730709;83;21178;-64
2022/10/02 00:16:33;;;;;;;5.58;4.40;;;;;;;15.40;93.22;99385.05;1723588;82;21604;-65
2022/10/02 00:19:04;;;;;;;7.20;4.58;;;;;;;15.38;93.30;99387.23;1708336;82;21170;-64
2022/10/02 00:21:57;;;;;;;8.03;4.25;;;;;;;15.35;93.39;99379.45;1708190;84;21178;-64
2022/10/02 00:24:45;;;;;;;6.17;3.77;;;;;;;15.36;93.45;99372.01;1708144;84;21187;-64
2022/10/02 00:27:28;;;;;;;9.30;4.10;;;;;;;15.35;93.43;99355.16;1708835;83;21222;-64
2022/10/02 00:29:59;;;;;;;6.15;4.15;;;;;;;15.32;93.46;99345.46;1708505;84;21567;-65
2022/10/02 00:32:42;;;;;;;7.05;4.22;;;;;;;15.29;93.52;99334.93;1708237;84;21218;-64
2022/10/02 00:35:37;;;;;;;5.75;3.50;;;;;;;15.26;93.54;99331.84;1708246;84;21131;-64
2022/10/02 00:38:53;;;;;;;5.45;3.60;;;;;;;15.24;93.67;99333.48;1701684;84;21175;-64
2022/10/02 00:41:54;;;;;;;8.05;3.27;;;;;;;15.24;93.75;99329.34;1700481;84;21226;-64
2022/10/02 00:44:48;;;;;;;6.55;3.85;;;;;;;15.25;93.80;99318.59;1700673;84;21215;-64
2022/10/02 00:47:52;;;;;;;5.15;3.50;;;;;;;15.24;93.92;99304.50;1754005;81;21115;-64
2022/10/02 00:51:13;;;;;;;5.70;3.12;;;;;;;15.19;94.02;99300.30;1750418;81;21163;-65
2022/10/02 00:54:04;;;;;;;5.20;3.37;;;;;;;15.17;94.05;99279.86;1762843;80;21128;-64
2022/10/02 00:57:00;;;;;;;5.03;2.95;;;;;;;15.14;94.14;99295.55;1758190;81;21123;-64
2022/10/02 00:59:43;;;;;;;4.37;3.15;;;;;;;15.14;94.29;99291.95;1746520;81;21139;-64
2022/10/02 01:02:39;;;;;;;3.80;2.95;;;;;;;15.15;94.38;99290.86;1760584;80;21552;-66
2022/10/02 01:05:11;;;;;;;4.55;3.37;;;;;;;15.16;94.39;99273.21;1759080;80;21103;-64
2022/10/02 01:07:42;;;;;;;5.10;3.12;;;;;;;15.17;94.34;99279.02;1744091;81;21190;-63
2022/10/02 01:10:12;;;;;;;4.78;3.15;;;;;;;15.16;94.20;99271.29;1745692;81;21095;-64
2022/10/02 01:12:41;;;;;;;5.90;3.05;;;;;;;15.17;94.16;99272.13;1760873;81;21135;-63
2022/10/02 01:15:13;;;;;;;4.60;3.02;;;;;;;15.14;94.12;99265.73;1760040;81;21092;-65
2022/10/02 01:17:41;;;;;;;3.22;2.80;;;;;;;15.12;94.14;99261.02;1688388;84;21154;-66
2022/10/02 01:20:43;;;;;;;5.22;3.30;;;;;;;15.12;94.20;99262.40;1744081;81;21515;-65
2022/10/02 01:23:35;;;;;;;4.55;3.00;;;;;;;15.15;94.12;99261.89;1734632;81;21107;-65
2022/10/02 01:26:06;;;;;;;4.45;3.10;;;;;;;15.13;93.87;99263.52;1744295;81;21546;-67
2022/10/02 01:28:35;;;;;;;3.65;2.87;;;;;;;15.09;93.93;99256.02;1756903;81;21099;-64
2022/10/02 01:31:07;;;;;;;3.67;3.08;;;;;;;15.06;93.92;99249.08;1748599;80;21106;-64
2022/10/02 01:33:37;;;;;;;4.80;2.77;;;;;;;15.04;93.99;99244.36;1763267;81;21175;-65
2022/10/02 01:36:08;;;;;;;4.90;2.72;;;;;;;15.03;93.93;99229.45;1773534;80;21167;-65
2022/10/02 01:38:39;;;;;;;3.45;2.83;;;;;;;15.03;93.87;99220.62;1756205;80;21558;-64
2022/10/02 01:41:11;;;;;;;5.80;2.65;;;;;;;14.99;93.84;99218.09;1768821;80;21103;-65
2022/10/02 01:43:52;;;;;;;5.92;3.10;;;;;;;15.00;93.83;99210.65;1775410;79;21091;-65
2022/10/02 01:46:51;;;;;;;7.12;2.72;;;;;;;14.96;93.69;99191.56;1761529;80;21589;-64
2022/10/02 01:49:50;;;;;;;3.92;2.77;;;;;;;14.96;93.63;99197.08;1696311;83;21121;-65
2022/10/02 01:52:47;;;;;;;3.27;2.40;;;;;;;14.96;93.58;99190.19;1713308;83;21147;-65
2022/10/02 01:55:39;;;;;;;4.37;2.70;;;;;;;14.97;93.58;99189.92;1655180;83;21138;-65
2022/10/02 01:58:46;;;;;;;3.40;2.30;;;;;;;14.95;93.42;99187.94;1721709;83;21170;-64
2022/10/02 02:01:24;;;;;;;3.72;2.40;;;;;;;14.97;93.28;99169.78;1622415;84;21264;-64
2022/10/02 02:04:15;;;;;;;3.52;2.35;;;;;;;14.98;93.15;99174.21;1702868;82;21160;-64
2022/10/02 02:07:05;;;;;;;4.28;2.30;;;;;;;14.99;93.06;99169.81;1641090;85;21193;-64
2022/10/02 02:09:49;;;;;;;3.02;2.40;;;;;;;15.01;92.84;99170.94;1717841;83;21865;-64
2022/10/02 02:12:26;;;;;;;3.67;2.22;;;;;;;15.00;92.66;99169.27;1724256;83;21144;-65
2022/10/02 02:15:01;;;;;;;4.15;2.27;;;;;;;15.01;92.45;99162.66;1715510;83;21125;-64
2022/10/02 02:17:47;;;;;;;3.40;2.00;;;;;;;15.00;92.31;99154.10;1715623;83;21112;-65
2022/10/02 02:20:33;;;;;;;3.92;2.12;;;;;;;14.98;92.17;99148.02;1708957;83;21579;-64
2022/10/02 02:23:10;;;;;;;2.90;2.20;;;;;;;14.95;92.19;99138.84;1703293;83;21591;-65
2022/10/02 02:25:44;;;;;;;4.53;2.40;;;;;;;14.91;92.12;99122.80;1715179;83;21198;-64
2022/10/02 02:28:14;;;;;;;3.45;1.95;;;;;;;14.92;92.10;99112.61;1719654;83;21182;-64
2022/10/02 02:30:45;;;;;;;4.60;2.00;;;;;;;14.95;91.98;99111.26;1729570;82;21597;-64
2022/10/02 02:33:25;;;;;;;3.12;2.20;;;;;;;14.95;91.74;99111.26;1724446;82;21147;-64
2022/10/02 02:35:57;;;;;;;2.90;1.90;;;;;;;14.93;91.62;99107.38;1708966;83;21149;-64
2022/10/02 02:38:36;;;;;;;3.08;2.20;;;;;;;14.91;91.62;99089.70;1705014;83;21128;-64
2022/10/02 02:41:11;;;;;;;2.70;1.80;;;;;;;14.90;91.44;99088.05;1748640;81;21135;-64
2022/10/02 02:43:51;;;;;;;4.75;1.80;;;;;;;14.89;91.33;99078.65;1774051;80;21116;-63
2022/10/02 02:46:28;;;;;;;2.90;1.92;;;;;;;14.85;91.25;99068.68;1744516;81;21107;-65
2022/10/02 02:49:03;;;;;;;3.25;2.00;;;;;;;14.82;91.33;99062.85;1744400;81;21203;-64
2022/10/02 02:51:40;;;;;;;3.20;2.20;;;;;;;14.83;91.31;99054.32;1744083;81;21107;-64
2022/10/02 02:54:17;;;;;;;4.22;2.20;;;;;;;14.81;91.25;99050.98;1773089;81;21595;-65
2022/10/02 02:56:46;;;;;;;3.77;1.87;;;;;;;14.82;91.27;99043.00;1749377;80;21199;-63
2022/10/02 02:59:15;;;;;;;4.33;1.95;;;;;;;14.85;91.32;99040.27;1744077;81;21088;-65
2022/10/02 03:01:46;;;;;;;3.35;2.00;;;;;;;14.85;91.11;99041.65;1755070;81;21155;-64
2022/10/02 03:04:17;;;;;;;4.47;2.42;;;;;;;14.85;91.13;99038.34;1760799;81;21088;-64
2022/10/02 03:06:48;;;;;;;2.47;2.20;;;;;;;14.87;90.99;99033.41;1774086;81;21190;-64
2022/10/02 03:09:21;;;;;;;2.62;2.00;;;;;;;14.90;90.84;99033.44;1744127;80;21558;-65
2022/10/02 03:11:58;;;;;;;2.10;1.90;;;;;;;14.92;90.83;99032.63;1756035;81;21158;-65
2022/10/02 03:14:32;;;;;;;4.03;2.30;;;;;;;14.92;90.77;99020.22;1749796;81;21163;-65
2022/10/02 03:17:17;;;;;;;3.72;2.40;;;;;;;14.93;90.71;99023.80;1760524;81;21128;-64
2022/10/02 03:20:06;;;;;;;5.40;2.50;;;;;;;14.95;90.62;99014.73;1743826;81;21127;-64
2022/10/02 03:22:58;;;;;;;3.90;2.20;;;;;;;14.95;90.48;99007.83;1744415;81;21159;-64
2022/10/02 03:25:53;;;;;;;4.85;2.75;;;;;;;14.91;90.47;99001.45;1750919;81;21129;-64
2022/10/02 03:28:37;;;;;;;5.17;3.10;;;;;;;14.93;90.58;98996.23;1745243;81;21111;-65
2022/10/02 03:31:09;;;;;;;5.47;3.05;;;;;;;14.88;90.50;98992.33;1680982;84;21602;-63
2022/10/02 03:33:38;;;;;;;7.42;2.67;;;;;;;14.87;90.39;98992.04;1678791;83;21158;-64
2022/10/02 03:36:09;;;;;;;4.78;3.20;;;;;;;14.86;90.34;98993.13;1748838;81;21116;-65
2022/10/02 03:38:38;;;;;;;5.45;3.25;;;;;;;14.87;90.49;98985.69;1739844;80;21114;-64
2022/10/02 03:41:07;;;;;;;5.53;3.55;;;;;;;14.93;90.54;98989.33;1757203;80;21123;-65
2022/10/02 03:43:37;;;;;;;8.08;3.35;;;;;;;14.93;90.40;99007.26;1770483;80;21550;-65
2022/10/02 03:46:07;;;;;;;6.05;3.70;;;;;;;14.94;90.41;99018.58;1757996;80;21147;-65
2022/10/02 03:48:36;;;;;;;4.47;3.12;;;;;;;14.93;90.37;98998.98;1764968;80;21571;-63
2022/10/02 03:51:06;;;;;;;3.85;2.58;;;;;;;14.91;90.39;98993.19;1762210;80;21123;-64
2022/10/02 03:53:37;;;;;;;6.50;2.87;;;;;;;14.92;90.38;99002.29;1769389;80;21237;-64
2022/10/02 03:56:35;;;;;;;5.17;2.70;;;;;;;14.88;90.31;99009.42;1771836;80;21199;-63
2022/10/02 03:59:09;;;;;;;4.92;2.52;;;;;;;14.85;90.52;98992.02;1769220;80;21126;-64
2022/10/02 04:01:42;;;;;;;5.40;2.83;;;;;;;14.82;90.79;98978.75;1777965;80;21135;-64
2022/10/02 04:04:20;;;;;;;2.83;2.25;;;;;;;14.82;90.96;98967.72;1764288;80;21146;-63
2022/10/02 04:07:03;;;;;;;5.72;2.52;;;;;;;14.82;91.09;98969.93;1752303;80;21190;-65
2022/10/02 04:09:36;;;;;;;4.05;2.42;;;;;;;14.79;91.18;98967.69;1748428;80;21166;-64
2022/10/02 04:12:10;;;;;;;6.60;2.45;;;;;;;14.77;91.37;98956.09;1773474;80;21150;-63
2022/10/02 04:14:50;;;;;;;3.80;2.30;;;;;;;14.77;91.56;98953.88;1764837;80;21167;-63
2022/10/02 04:17:29;;;;;;;3.58;2.42;;;;;;;14.76;91.57;98953.05;1775702;79;21107;-64
2022/10/02 04:20:09;;;;;;;3.22;2.47;;;;;;;14.80;91.76;98940.95;1782249;80;21151;-65
2022/10/02 04:22:55;;;;;;;6.60;3.15;;;;;;;14.81;91.63;98944.83;1755565;80;21158;-63
2022/10/02 04:25:36;;;;;;;4.35;2.70;;;;;;;14.79;91.79;98933.23;1693874;83;21137;-65
2022/10/02 04:28:13;;;;;;;7.22;2.92;;;;;;;14.82;91.86;98938.77;1752071;80;21591;-65
2022/10/02 04:30:44;;;;;;;4.95;2.40;;;;;;;14.83;91.93;98937.12;1764413;80;21131;-65
2022/10/02 04:33:18;;;;;;;5.22;2.90;;;;;;;14.84;91.96;98933.82;1752496;80;21592;-65
2022/10/02 04:36:16;;;;;;;4.87;2.90;;;;;;;14.81;91.89;98918.63;1752028;80;21127;-65
2022/10/02 04:39:22;;;;;;;7.17;2.60;;;;;;;14.80;91.98;98911.45;1738609;80;21582;-65
2022/10/02 04:42:32;;;;;;;6.60;3.05;;;;;;;14.80;92.09;98904.56;1708870;83;21165;-64
2022/10/02 04:45:16;;;;;;;4.95;2.83;;;;;;;14.78;92.21;98897.09;1710640;83;21149;-65
2022/10/02 04:48:35;;;;;;;6.08;3.10;;;;;;;14.78;92.42;98888.83;1713313;82;21123;-64
2022/10/02 04:51:16;;;;;;;4.53;3.05;;;;;;;14.81;92.64;98877.27;1715417;83;21628;-64
2022/10/02 04:54:13;;;;;;;4.58;3.27;;;;;;;14.80;92.74;98865.96;1671173;83;21621;-64
2022/10/02 04:56:53;;;;;;;4.87;3.67;;;;;;;14.75;92.58;98856.27;1704098;83;21136;-64
2022/10/02 04:59:57;;;;;;;5.95;3.25;;;;;;;14.72;92.86;98855.41;1703604;83;21151;-65
2022/10/02 05:02:50;;;;;;;7.55;3.67;;;;;;;14.73;93.02;98857.63;1704093;83;21128;-63
2022/10/02 05:05:44;;;;;;;8.93;3.60;;;;;;;14.73;93.04;98847.97;1704406;83;21171;-65
2022/10/02 05:08:41;;;;;;;7.90;4.17;;;;;;;14.73;93.07;98842.46;1713335;83;21555;-66
2022/10/02 05:11:31;;;;;;;5.73;4.20;;;;;;;14.68;92.98;98832.22;1710537;83;21586;-65
2022/10/02 05:14:28;;;;;;;9.95;4.50;;;;;;;14.65;93.17;98829.99;1722927;83;21172;-65
2022/10/02 05:17:39;;;;;;;6.75;5.10;;;;;;;14.66;93.40;98825.30;1725711;82;21124;-64
2022/10/02 05:20:25;;;;;;;8.20;5.40;;;;;;;14.65;93.45;98827.78;1722725;82;21546;-64
2022/10/02 05:23:32;;;;;;;7.90;5.65;;;;;;;14.66;93.68;98819.25;1721221;83;21150;-65
2022/10/02 05:26:19;;;;;;;7.28;4.35;;;;;;;14.68;93.54;98822.58;1715135;83;21628;-65
2022/10/02 05:29:16;;;;;;;8.55;4.87;;;;;;;14.69;93.48;98822.86;1708113;83;21167;-66
2022/10/02 05:32:08;;;;;;;6.42;4.83;;;;;;;14.66;93.58;98837.17;1725200;82;21107;-63
2022/10/02 05:35:01;;;;;;;7.33;4.50;;;;;;;14.69;93.84;98855.11;1734159;82;21139;-65
2022/10/02 05:38:06;;;;;;;8.10;4.53;;;;;;;14.70;94.03;98864.49;1726479;82;21119;-65
2022/10/02 05:40:43;;;;;;;8.63;4.35;;;;;;;14.71;94.18;98839.13;1684038;84;21550;-63
2022/10/02 05:43:33;;;;;;;8.48;4.25;;;;;;;14.74;94.38;98806.91;1748596;82;21110;-63
2022/10/02 05:46:14;;;;;;;8.85;4.80;;;;;;;14.75;94.46;98810.78;1748947;82;21166;-62
2022/10/02 05:49:03;;;;;;;9.88;4.80;;;;;;;14.78;94.52;98807.49;1719738;82;21607;-62
2022/10/02 05:51:58;;;;;;;6.55;4.33;;;;;;;14.78;94.73;98794.25;1735351;82;21201;-63
2022/10/02 05:55:05;;;;;;;6.92;4.28;;;;;;;14.77;94.98;98789.83;1731074;82;21566;-63
2022/10/02 05:57:52;;;;;;;6.95;4.80;;;;;;;14.74;95.20;98805.52;1748446;82;21118;-63
2022/10/02 06:00:41;;;;;;;10.55;5.00;;;;;;;14.69;95.70;98806.31;1747627;82;21090;-64
2022/10/02 06:03:39;;;;;;;7.53;4.60;;;;;;;14.68;96.28;98795.00;1730395;82;21110;-64
2022/10/02 06:06:19;;;;;;;8.48;4.42;;;;;;;14.70;96.78;98783.17;1719898;82;21141;-65
2022/10/02 06:09:02;;;;;;;8.13;5.12;;;;;;;14.69;96.91;98780.13;1725092;82;21149;-63
2022/10/02 06:11:40;;;;;;;8.98;4.87;;;;;;;14.64;97.44;98770.44;1734486;82;21168;-63
2022/10/02 06:14:22;;;;;;;9.03;5.03;;;;;;;14.65;97.79;98758.87;1731732;82;21129;-62
2022/10/02 06:17:13;;;;;;;8.83;5.35;;;;;;;14.66;98.13;98758.61;1718787;82;21165;-62
2022/10/02 06:19:59;;;;;;;9.08;5.67;;;;;;;14.63;98.29;98761.05;1734911;82;21119;-63
2022/10/02 06:22:41;;;;;;;8.18;5.05;;;;;;;14.63;98.76;98759.13;1728310;82;21090;-63
2022/10/02 06:25:25;;;;;;;8.78;5.10;;;;;;;14.64;99.19;98755.28;1719464;82;21177;-65
2022/10/02 06:28:01;;;;;;;12.03;6.10;;;;;;;14.65;99.40;98763.00;1724665;82;21082;-64
2022/10/02 06:30:31;;;;;;;11.35;6.35;;;;;;;14.64;99.85;98760.80;1736519;82;21169;-64
2022/10/02 06:33:25;;;;;;;11.35;6.10;;;;;;;14.63;100.00;98757.75;1725476;82;21567;-64
2022/10/02 06:36:05;;;;;;;11.70;5.67;;;;;;;14.62;100.00;98753.34;1716762;82;21138;-64
2022/10/02 06:39:22;;;;;;;15.50;5.50;;;;;;;14.59;100.00;98745.05;1724748;81;21099;-63
2022/10/02 06:42:18;;;;;;;8.15;5.30;;;;;;;14.59;100.00;98742.84;1764614;80;21104;-65
2022/10/02 10:24:49;;;;;;;1.10;1.00;;;;;;;15.82;95.43;98616.78;1841464;76;28091;-64
2022/10/02 10:28:02;;;;;;;2.75;1.10;;;;;;;15.86;95.18;98616.51;1748576;80;21172;-64
2022/10/02 10:30:56;;;;;;;1.40;1.12;;;;;;;15.93;94.67;98614.30;1760628;80;21553;-63
2022/10/02 10:34:08;;;;;;;1.45;1.10;;;;;;;15.99;94.08;98610.98;1756076;80;21558;-64
2022/10/02 10:40:28;;;;;;;3.47;1.10;;;;;;;16.03;93.21;98612.91;1764929;80;21145;-62
2022/10/02 10:43:40;;;;;;;2.00;1.00;;;;;;;16.01;92.75;98623.41;1765726;80;21126;-64
2022/10/02 10:46:27;;;;;;;1.60;1.10;;;;;;;15.97;92.37;98623.69;1765966;80;21142;-64
2022/10/02 10:49:17;;;;;;;1.67;0.70;;;;;;;15.95;92.14;98660.42;1778704;80;21118;-63
2022/10/02 10:52:06;;;;;;;1.02;0.68;;;;;;;15.81;91.26;98650.47;1784476;79;21129;-62
2022/10/02 10:55:15;;;;;;;1.02;0.70;;;;;;;15.60;91.01;98643.23;1775939;80;21161;-63
2022/10/02 10:58:05;;;;;;;1.85;0.50;;;;;;;15.38;91.15;98655.02;1796297;80;21158;-62
2022/10/02 11:01:07;;;;;;;0.93;0.45;;;;;;;15.18;91.78;98653.02;1766026;80;21113;-63
2022/10/02 11:04:12;;;;;;;0.55;0.50;;;;;;;14.98;91.72;98668.94;1772114;80;21577;-64
2022/10/02 11:06:51;;;;;;;3.50;0.60;;;;;;;14.76;91.35;98673.76;1779647;79;21199;-63
2022/10/02 11:09:47;;;;;;;1.07;0.55;;;;;;;14.57;91.43;98667.31;1765567;80;21184;-62
2022/10/02 11:12:42;;;;;;;0.62;0.62;;;;;;;14.46;91.74;98663.38;1666835;85;21788;-62
2022/10/02 11:15:55;;;;;;;1.45;0.78;;;;;;;14.34;92.35;98677.87;1784200;78;21142;-63
2022/10/02 11:19:03;;;;;;;4.12;0.50;;;;;;;14.22;93.10;98674.72;1825174;77;22101;-64
2022/10/02 11:22:06;;;;;;;3.33;0.60;;;;;;;14.09;93.37;98667.45;1730209;83;21520;-63
2022/10/02 11:24:56;;;;;;;5.22;0.60;;;;;;;13.92;93.23;98679.97;1707200;83;21123;-63
2022/10/02 11:27:46;;;;;;;1.10;0.60;;;;;;;13.83;93.02;98671.91;1705506;83;21291;-63
2022/10/02 11:30:22;;;;;;;0.90;0.60;;;;;;;13.76;92.76;98666.61;1653591;87;21565;-63
2022/10/02 11:33:38;;;;;;;0.98;0.55;;;;;;;13.72;92.70;98672.36;1713600;83;21194;-64
2022/10/02 11:36:28;;;;;;;2.15;0.75;;;;;;;13.70;92.67;98691.05;1693494;83;21609;-67
2022/10/02 11:39:19;;;;;;;0.95;0.57;;;;;;;13.55;91.24;98690.31;1719337;80;21146;-66
2022/10/02 11:42:32;;;;;;;0.85;0.50;;;;;;;13.43;90.92;98696.51;1785842;80;21613;-66
2022/10/02 11:45:22;;;;;;;0.57;0.42;;;;;;;13.35;90.84;98694.22;1757523;80;21568;-66
2022/10/02 11:48:10;;;;;;;0.70;0.60;;;;;;;13.30;90.90;98677.11;1772584;80;21126;-67
2022/10/02 11:51:12;;;;;;;0.70;0.50;;;;;;;13.27;90.68;98674.87;1762199;80;21091;-67
2022/10/02 11:54:18;;;;;;;2.35;0.50;;;;;;;13.27;90.60;98670.75;1769747;80;21103;-65
2022/10/02 11:57:07;;;;;;;0.90;0.60;;;;;;;13.27;90.91;98679.00;1746887;80;21206;-66
2022/10/02 11:59:56;;;;;;;2.12;0.70;;;;;;;13.25;90.89;98670.72;1773376;80;21726;-66
2022/10/02 12:02:42;;;;;;;1.55;0.82;;;;;;;13.18;90.47;98672.84;1757702;80;21518;-65
2022/10/02 12:05:33;;;;;;;2.60;0.45;;;;;;;13.10;90.62;98668.59;1770302;80;21169;-66
2022/10/02 12:08:47;;;;;;;1.40;0.65;;;;;;;13.05;90.78;98671.27;1757142;80;21197;-65
2022/10/02 12:11:44;;;;;;;2.40;0.65;;;;;;;13.01;91.10;98666.83;1763298;80;21115;-66
2022/10/02 12:14:45;;;;;;;1.25;1.00;;;;;;;12.96;91.05;98682.41;1757609;80;21142;-67
2022/10/02 12:17:19;;;;;;;1.47;0.80;;;;;;;12.86;89.96;98679.52;1760396;80;21143;-65
2022/10/02 12:29:47;;;;;;;1.55;0.40;;;;;;;12.64;89.45;98669.88;1755416;80;21620;-64
2022/10/02 12:32:53;;;;;;;3.65;0.50;;;;;;;12.59;89.04;98680.25;1769306;80;21704;-64
2022/10/02 12:35:41;;;;;;;2.25;0.47;;;;;;;12.56;89.05;98667.03;1757109;80;21539;-63
2022/10/02 12:38:34;;;;;;;0.50;0.50;;;;;;;12.55;88.50;98657.66;1754364;80;21163;-62
2022/10/02 12:41:32;;;;;;;1.95;0.40;;;;;;;12.50;87.55;98668.58;1752004;80;21165;-63
2022/10/02 12:44:18;;;;;;;0.40;0.40;;;;;;;12.44;87.05;98666.84;1767111;80;21551;-64
2022/10/02 12:47:30;;;;;;;0.40;0.30;;;;;;;12.41;86.84;98667.34;1759913;80;21115;-64
2022/10/02 12:50:40;;;;;;;2.25;0.50;;;;;;;12.42;87.02;98675.34;1752191;80;21190;-64
2022/10/02 12:53:23;;;;;;;0.93;0.40;;;;;;;12.45;86.93;98672.63;1777641;80;21119;-64
2022/10/02 12:56:10;;;;;;;1.67;0.37;;;;;;;12.44;86.22;98669.59;1715369;82;21166;-64
2022/10/02 12:58:50;;;;;;;0.95;0.30;;;;;;;12.40;85.28;98685.73;1741530;80;21154;-64
2022/10/02 13:01:52;;;;;;;0.95;0.50;;;;;;;12.39;85.14;98663.48;1776447;80;21111;-64
2022/10/02 13:04:26;;;;;;;1.95;1.45;;;;;;;12.36;84.44;98668.10;1754345;80;21166;-62
2022/10/02 13:07:36;;;;;;;0.50;0.50;;;;;;;12.33;83.78;98669.41;1746722;80;21198;-62
2022/10/02 13:10:20;;;;;;;5.58;4.37;;;;;;;12.31;82.95;98677.06;1776678;80;21138;-65
2022/10/02 13:13:06;;;;;;;0.78;0.70;;;;;;;12.33;82.87;98670.78;1761916;80;21159;-63
2022/10/02 13:16:10;;;;;;;;;;;;;;;12.33;82.28;98670.78;1754427;80;21095;-63
2022/10/02 13:18:51;;;;;;;3.33;0.50;;;;;;;12.32;82.21;98679.27;1699576;83;20553;-64
2022/10/02 13:21:38;;;;;;;2.67;0.50;;;;;;;12.28;81.88;98658.34;1703194;83;21149;-65
2022/10/02 13:24:28;;;;;;;0.80;0.62;;;;;;;12.28;81.58;98673.98;1698709;83;21159;-64
2022/10/02 13:27:15;;;;;;;1.15;0.53;;;;;;;12.29;81.68;98672.36;1697350;84;21220;-64
2022/10/02 13:29:57;;;;;;;;;;;;;;;12.28;81.37;98678.94;1688580;84;21131;-65
2022/10/02 13:32:51;;;;;;;0.82;0.40;;;;;;;12.27;80.91;98675.91;1698602;84;20158;-64
2022/10/02 13:35:51;;;;;;;0.50;0.40;;;;;;;12.24;80.96;98687.39;1754419;81;21132;-64
2022/10/02 13:38:45;;;;;;;1.98;0.33;;;;;;;12.22;80.85;98688.18;1737599;81;21142;-65
2022/10/02 13:41:26;;;;;;;0.50;0.40;;;;;;;12.19;80.42;98688.68;1750539;81;21159;-64
2022/10/02 13:44:32;;;;;;;0.37;0.37;;;;;;;12.15;79.89;98675.16;1742639;81;21202;-64
2022/10/02 13:47:16;;;;;;;0.23;0.20;;;;;;;12.11;79.80;98684.98;1748197;81;21120;-64
2022/10/02 13:50:27;;;;;;;0.45;0.40;;;;;;;12.10;79.97;98686.59;1756771;80;21610;-64
2022/10/02 13:53:21;;;;;;;2.33;0.35;;;;;;;12.12;79.97;98687.19;1761115;80;21130;-65
2022/10/02 13:56:16;;;;;;;0.53;0.40;;;;;;;12.10;79.29;98696.21;1740905;80;21150;-66
2022/10/02 13:58:59;;;;;;;0.82;0.50;;;;;;;12.08;79.27;98692.88;1749382;80;21126;-63
2022/10/02 14:02:03;;;;;;;2.10;0.30;;;;;;;12.08;79.13;98694.25;1760997;80;21098;-64
2022/10/02 14:04:56;;;;;;;0.65;0.50;;;;;;;12.08;78.73;98697.83;1774575;80;21118;-65
2022/10/02 14:07:48;;;;;;;0.90;0.53;;;;;;;12.06;77.90;98694.50;1765182;80;21176;-63
2022/10/02 14:10:43;;;;;;;0.30;0.30;;;;;;;12.00;76.76;98700.98;1751784;80;21126;-64
2022/10/02 14:13:30;;;;;;;0.65;0.40;;;;;;;11.95;77.00;98702.27;1750039;80;21174;-63
2022/10/02 14:16:25;;;;;;;;;;;;;;;11.90;76.99;98704.93;1752782;80;21634;-65
2022/10/02 14:19:08;;;;;;;0.60;0.30;;;;;;;11.85;76.60;98722.14;1746966;80;20458;-64
2022/10/02 14:22:11;;;;;;;0.90;0.33;;;;;;;11.78;77.05;98701.42;1744164;81;21577;-64
2022/10/02 14:25:22;;;;;;;0.50;0.20;;;;;;;11.71;77.48;98698.27;1719283;82;21202;-64
2022/10/02 14:28:29;;;;;;;0.90;0.20;;;;;;;11.64;78.63;98699.47;1694399;84;21162;-63
2022/10/02 14:31:32;;;;;;;0.75;0.35;;;;;;;11.52;79.82;98718.72;1756117;81;21107;-63
2022/10/02 14:34:28;;;;;;;1.45;0.35;;;;;;;11.38;81.30;98720.09;1756663;81;21115;-64
2022/10/02 14:37:17;;;;;;;0.30;0.20;;;;;;;11.31;82.65;98705.15;1755973;81;21124;-63
2022/10/02 14:39:47;;;;;;;1.00;0.40;;;;;;;11.19;83.19;98729.56;1744098;81;21163;-64
2022/10/02 14:42:43;;;;;;;1.27;0.20;;;;;;;11.09;83.76;98727.45;1749729;81;21151;-64
2022/10/02 14:45:32;;;;;;;2.65;0.37;;;;;;;11.00;83.62;98742.03;1740621;81;21150;-65
2022/10/02 14:48:16;;;;;;;1.02;0.30;;;;;;;10.91;84.16;98752.23;1746343;81;21072;-64
2022/10/02 14:51:35;;;;;;;1.32;0.50;;;;;;;10.86;84.77;98736.52;1762625;81;21175;-62
2022/10/02 14:54:17;;;;;;;0.30;0.30;;;;;;;10.84;85.23;98739.20;1756503;81;21535;-63
2022/10/02 14:57:18;;;;;;;0.42;0.28;;;;;;;10.81;85.17;98741.88;1746119;81;21592;-63
2022/10/02 15:00:12;;;;;;;1.35;0.30;;;;;;;10.70;84.91;98744.92;1755809;81;21142;-63
2022/10/02 15:03:20;;;;;;;1.25;0.40;;;;;;;10.58;85.47;98759.16;1764212;81;21140;-64
2022/10/02 15:06:20;;;;;;;0.40;0.40;;;;;;;10.53;86.12;98760.41;1755570;81;21499;-63
2022/10/02 15:09:16;;;;;;;0.50;0.50;;;;;;;10.51;86.76;98765.83;1774054;81;21112;-64
2022/10/02 15:12:07;;;;;;;3.52;0.90;;;;;;;10.48;86.98;98770.70;1744194;81;21095;-63
2022/10/02 15:15:11;;;;;;;1.95;0.60;;;;;;;10.41;86.70;98787.78;1744098;81;21088;-63
2022/10/02 15:17:55;;;;;;;1.22;0.50;;;;;;;10.38;86.89;98780.01;1727364;81;21175;-62
2022/10/02 15:20:46;;;;;;;0.50;0.50;;;;;;;10.37;87.13;98779.70;1757409;80;21103;-63
2022/10/02 15:23:48;;;;;;;0.70;0.45;;;;;;;10.36;87.10;98779.95;1771876;81;21138;-64
2022/10/02 15:26:49;;;;;;;1.42;0.60;;;;;;;10.38;87.08;98801.08;1746259;80;21570;-62
2022/10/02 15:29:28;;;;;;;0.53;0.40;;;;;;;10.35;86.08;98802.91;1681866;83;21127;-63
2022/10/02 15:32:23;;;;;;;0.65;0.40;;;;;;;10.33;85.59;98816.00;1767076;81;21147;-64
2022/10/02 15:35:23;;;;;;;0.93;0.72;;;;;;;10.32;85.85;98812.43;1752155;81;21143;-63
2022/10/02 15:38:37;;;;;;;1.27;0.70;;;;;;;10.33;86.07;98814.64;1755862;81;21080;-65
2022/10/02 15:41:21;;;;;;;1.27;0.50;;;;;;;10.35;86.13;98820.17;1756307;81;21163;-62
2022/10/02 15:44:29;;;;;;;2.30;0.70;;;;;;;10.35;86.04;98827.02;1744582;81;21159;-64
2022/10/02 15:47:34;;;;;;;2.08;0.68;;;;;;;10.34;85.87;98824.52;1744248;81;21189;-64
2022/10/02 15:50:24;;;;;;;1.87;0.60;;;;;;;10.33;85.84;98818.20;1755668;81;21394;-63
2022/10/02 15:53:17;;;;;;;4.95;0.65;;;;;;;10.35;85.63;98824.81;1764926;81;21515;-63
2022/10/02 15:55:54;;;;;;;1.65;0.60;;;;;;;10.34;85.62;98834.93;1754841;80;21123;-64
2022/10/02 15:59:10;;;;;;;0.93;0.53;;;;;;;10.31;85.96;98818.14;1683161;84;21119;-64
2022/10/02 16:02:10;;;;;;;0.70;0.60;;;;;;;10.26;86.07;98842.11;1759030;81;21147;-63
2022/10/02 16:04:59;;;;;;;0.90;0.60;;;;;;;10.20;86.13;98829.36;1744477;81;21084;-63
2022/10/02 16:07:51;;;;;;;0.75;0.40;;;;;;;10.15;86.68;98834.67;1694621;83;21130;-63
2022/10/02 16:10:38;;;;;;;0.68;0.60;;;;;;;10.12;86.91;98829.66;1756165;81;21162;-63
2022/10/02 16:13:32;;;;;;;1.22;0.70;;;;;;;10.08;86.73;98836.14;1764149;80;21166;-63
2022/10/02 16:16:09;;;;;;;2.77;0.82;;;;;;;10.05;86.80;98831.66;1765165;81;21190;-63
2022/10/02 16:19:32;;;;;;;0.93;0.70;;;;;;;10.04;86.97;98835.47;1658213;84;21123;-64
2022/10/02 16:22:37;;;;;;;0.88;0.60;;;;;;;10.03;86.15;98840.10;1691391;84;21151;-63
2022/10/02 16:25:37;;;;;;;1.17;0.70;;;;;;;10.01;85.80;98829.92;1687432;84;21127;-64
2022/10/02 16:28:40;;;;;;;0.88;0.68;;;;;;;10.00;85.51;98837.00;1691671;84;21146;-65
2022/10/02 16:31:36;;;;;;;0.90;0.70;;;;;;;10.00;85.31;98837.83;1690738;84;21099;-64
2022/10/02 16:34:34;;;;;;;1.32;0.72;;;;;;;10.00;85.02;98850.67;1646112;87;21218;-65
2022/10/02 16:37:21;;;;;;;0.68;0.50;;;;;;;10.03;85.05;98851.58;1643886;86;21167;-64
2022/10/02 16:40:05;;;;;;;0.80;0.65;;;;;;;10.03;84.68;98842.00;1634838;87;21229;-64
2022/10/02 16:43:21;;;;;;;0.88;0.60;;;;;;;10.01;84.54;98846.88;1645378;84;21159;-63
2022/10/02 16:46:24;;;;;;;0.90;0.70;;;;;;;9.98;84.69;98849.55;1744259;81;21632;-64
2022/10/02 16:49:05;;;;;;;0.93;0.72;;;;;;;10.00;84.94;98843.84;1768640;81;21111;-63
2022/10/02 16:51:44;;;;;;;2.87;0.90;;;;;;;9.98;84.43;98845.97;1744178;81;21143;-64
2022/10/02 16:54:44;;;;;;;0.78;0.68;;;;;;;9.95;84.48;98850.54;1749870;81;21531;-63
2022/10/02 16:57:44;;;;;;;0.57;0.50;;;;;;;9.94;84.63;98852.44;1744049;81;21554;-62
2022/10/02 17:00:27;;;;;;;1.30;0.80;;;;;;;9.93;84.71;98848.56;1744123;81;21105;-63
2022/10/02 17:03:24;;;;;;;2.33;1.00;;;;;;;9.93;84.90;98855.41;1766286;81;21139;-63
2022/10/02 17:06:08;;;;;;;1.12;0.78;;;;;;;9.91;84.81;98858.37;1743998;81;21587;-65
2022/10/02 17:09:06;;;;;;;2.60;1.00;;;;;;;9.92;84.97;98865.52;1684901;84;21582;-64